ilmateenistus.ee keskkonnaagentuur.ee
EETN Tallinn
FTEO31 EETN 232300
TAF EETN 232300Z 2400/2424 26010KT 9999 SCT040 TEMPO 2400/2404 2000
    BR BKN004 BECMG 2404/2406 BKN003 TEMPO 2404/2408 0700 FZFG TEMPO
    2409/2413 27016G28KT OVC005 BECMG 2413/2415 BKN012=

METAR EETN 240120Z 25010KT CAVOK 01/01 Q1025 R08/290195 =
Tallinn
EEKA Kärdla
METAR EEKA 240050Z NIL=
Kärdla
EEKE Kuressaare
SPECI EEKE 240121Z AUTO 28008KT 240V330 1800NDV FG SCT002 OVC005 02/02 Q1029=
Kuressaare
EEPU Pärnu
METAR EEPU 240050Z NIL=
Pärnu
EETU Tartu
METAR EETU 240120Z AUTO 26013KT 0900 R26/P2000N FG OVC001/// 01/01 Q1026=
Tartu
EEEI Ämari
SPECI EEEI 240121Z 22008KT 8000 OVC002 01/01 Q1026 R24/290095=
Ämari